Time;durP1;ratioP1;P1;durP2;ratioP2;P2;SDS_P1;SDS_P2;PMS_P1;PMS_P2;Temp;Humidity;BMP_temperature;BMP_pressure;BME280_temperature;BME280_humidity;BME280_pressure;Samples;Min_cycle;Max_cycle;Signal;HPM_P1;HPM_P2
2022/02/11 00:04:33;;;;;;;49.90;40.00;;;26.70;87.40;;;;;;1710983;82;21185;-82
2022/02/11 00:07:03;;;;;;;55.20;42.93;;;26.70;87.30;;;;;;1720119;82;21119;-81
2022/02/11 00:09:11;;;;;;;48.78;38.35;;;26.70;87.60;;;;;;1687022;84;21246;-81
2022/02/11 00:11:42;;;;;;;42.40;34.35;;;26.70;86.80;;;;;;1687037;84;21712;-81
2022/02/11 00:14:13;;;;;;;38.63;33.05;;;26.70;86.40;;;;;;1685061;84;21798;-81
2022/02/11 00:16:44;;;;;;;41.23;30.85;;;26.70;85.70;;;;;;1692128;84;21218;-81
2022/02/11 00:19:15;;;;;;;40.85;31.07;;;26.70;85.50;;;;;;1688923;83;21258;-82
2022/02/11 00:21:46;;;;;;;38.67;32.50;;;26.70;85.20;;;;;;1697696;83;21141;-82
2022/02/11 00:24:17;;;;;;;38.78;31.75;;;26.70;84.90;;;;;;1710710;84;21493;-81
2022/02/11 00:27:05;;;;;;;42.38;31.50;;;26.70;84.60;;;;;;1710862;84;21114;-81
2022/02/11 00:32:21;;;;;;;38.80;30.10;;;26.70;84.50;;;;;;1719809;82;21188;-81
2022/02/11 00:34:35;;;;;;;40.98;30.35;;;26.70;84.10;;;;;;1710526;82;21086;-81
2022/02/11 01:04:49;;;;;;;36.50;27.35;;;26.80;82.40;;;;;;1723662;82;21259;-81
2022/02/11 01:07:20;;;;;;;34.73;26.57;;;26.80;82.50;;;;;;1726248;82;21601;-81
2022/02/11 01:09:51;;;;;;;35.80;26.42;;;26.80;82.20;;;;;;1682909;85;21169;-81
2022/02/11 01:12:22;;;;;;;35.10;26.60;;;26.80;82.10;;;;;;1714421;82;21165;-81
2022/02/11 01:14:54;;;;;;;38.08;25.35;;;26.80;81.80;;;;;;1713876;82;21718;-81
2022/02/11 01:20:09;;;;;;;32.73;26.42;;;26.80;81.70;;;;;;1709573;82;21204;-82
2022/02/11 01:22:45;;;;;;;36.45;26.60;;;26.70;81.80;;;;;;1724365;82;21153;-82
2022/02/11 01:43:43;;;;;;;38.98;28.27;;;26.90;81.70;;;;;;1684617;85;21267;-82
2022/02/11 01:50:43;;;;;;;37.28;29.15;;;26.90;81.70;;;;;;1716478;82;21126;-81
2022/02/11 02:01:04;;;;;;;36.90;27.60;;;27.10;81.40;;;;;;1685918;83;21594;-83
2022/02/11 02:29:44;;;;;;;34.53;24.45;;;27.40;79.40;;;;;;1714245;82;21257;-82
2022/02/11 03:01:55;;;;;;;32.78;26.02;;;27.60;79.20;;;;;;1731158;81;21142;-83
2022/02/11 03:15:02;;;;;;;36.90;25.17;;;27.80;78.30;;;;;;1758892;81;21150;-80
2022/02/11 03:35:12;;;;;;;30.88;23.83;;;28.10;76.90;;;;;;1750114;81;21134;-81
2022/02/11 04:56:10;;;;;;;31.30;23.52;;;30.80;67.40;;;;;;1743242;81;21185;-81
2022/02/11 05:01:13;;;;;;;26.00;22.37;;;31.00;65.10;;;;;;1741669;82;21198;-82
2022/02/11 05:03:44;;;;;;;29.85;22.30;;;31.20;64.30;;;;;;1728886;81;21669;-82
2022/02/11 05:06:15;;;;;;;26.17;22.22;;;31.30;63.60;;;;;;1724125;82;21211;-82
2022/02/11 05:08:46;;;;;;;27.10;22.05;;;31.50;65.20;;;;;;1711431;84;21241;-81
2022/02/11 05:11:17;;;;;;;24.63;21.85;;;31.60;63.90;;;;;;1711500;83;21685;-82
2022/02/11 05:13:47;;;;;;;30.80;22.07;;;31.70;60.60;;;;;;1682719;85;21142;-83
2022/02/11 05:16:18;;;;;;;25.27;21.80;;;31.80;63.40;;;;;;1691764;84;21686;-82
2022/02/11 05:18:49;;;;;;;29.30;21.65;;;31.80;62.70;;;;;;1688959;84;21195;-81
2022/02/11 05:21:20;;;;;;;31.82;23.95;;;31.80;63.00;;;;;;1692626;85;21715;-82
2022/02/11 05:23:51;;;;;;;24.18;21.17;;;31.80;62.40;;;;;;1713043;82;21108;-81
2022/02/11 05:26:22;;;;;;;24.35;20.43;;;31.90;62.80;;;;;;1711237;84;21218;-82
2022/02/11 05:28:53;;;;;;;24.67;20.65;;;32.00;61.70;;;;;;1684054;85;21768;-82
2022/02/11 05:31:24;;;;;;;23.40;20.05;;;32.10;60.00;;;;;;1699149;83;21216;-82
2022/02/11 05:33:55;;;;;;;23.90;20.12;;;32.10;60.30;;;;;;1686516;83;21209;-82
2022/02/11 05:36:26;;;;;;;23.30;18.90;;;32.20;60.40;;;;;;1713585;82;21722;-82
2022/02/11 05:38:56;;;;;;;25.10;19.57;;;32.20;58.90;;;;;;1711449;84;21603;-82
2022/02/11 05:41:27;;;;;;;23.27;19.25;;;32.30;59.50;;;;;;1684347;85;21223;-82
2022/02/11 05:43:58;;;;;;;20.77;17.32;;;32.40;58.60;;;;;;1700068;82;21172;-82
2022/02/11 05:46:29;;;;;;;22.40;19.50;;;32.50;58.70;;;;;;1710670;84;21573;-81
2022/02/11 05:49:00;;;;;;;24.00;19.73;;;32.60;59.40;;;;;;1711529;82;21194;-82
2022/02/11 05:51:31;;;;;;;23.32;18.87;;;32.60;58.80;;;;;;1711996;84;21737;-83
2022/02/11 05:54:01;;;;;;;21.70;18.05;;;32.60;58.20;;;;;;1711131;82;21210;-82
2022/02/11 05:56:32;;;;;;;20.95;18.35;;;32.60;58.30;;;;;;1713203;82;21209;-83
2022/02/11 05:59:03;;;;;;;24.25;18.80;;;32.50;58.60;;;;;;1713576;82;21212;-83
2022/02/11 06:01:34;;;;;;;20.10;16.95;;;32.60;58.50;;;;;;1685491;85;21275;-82
2022/02/11 06:04:12;;;;;;;21.75;18.05;;;32.50;58.80;;;;;;1679352;84;21159;-82
2022/02/11 06:06:42;;;;;;;19.55;17.50;;;32.50;58.70;;;;;;1714698;83;21701;-82
2022/02/11 06:09:13;;;;;;;20.50;18.40;;;32.60;58.70;;;;;;1692200;85;21224;-83
2022/02/11 06:11:44;;;;;;;23.77;17.00;;;32.70;57.60;;;;;;1693078;83;21231;-83
2022/02/11 06:14:17;;;;;;;19.98;16.90;;;32.70;57.40;;;;;;1692249;83;21209;-83
2022/02/11 06:16:54;;;;;;;21.75;17.55;;;32.80;57.40;;;;;;1710404;83;21161;-83
2022/02/11 06:19:25;;;;;;;21.85;18.25;;;32.80;58.10;;;;;;1718629;83;21284;-83
2022/02/11 06:21:56;;;;;;;18.27;16.17;;;32.80;57.90;;;;;;1716990;83;21224;-83
2022/02/11 06:24:26;;;;;;;17.95;16.05;;;32.80;58.10;;;;;;1713624;83;21169;-84
2022/02/11 06:26:57;;;;;;;21.57;16.95;;;32.80;56.50;;;;;;1712731;83;21250;-83
2022/02/11 06:29:28;;;;;;;17.48;15.58;;;32.80;56.60;;;;;;1718109;83;21198;-82
2022/02/11 06:31:59;;;;;;;20.97;15.90;;;32.90;56.40;;;;;;1709598;83;21192;-82
2022/02/11 06:34:30;;;;;;;19.12;16.17;;;32.90;56.50;;;;;;1692254;85;21171;-83
2022/02/11 06:37:00;;;;;;;18.98;15.68;;;33.00;56.80;;;;;;1692295;85;21246;-82
2022/02/11 06:39:32;;;;;;;19.50;15.93;;;33.00;56.40;;;;;;1692391;85;21286;-82
2022/02/11 06:42:03;;;;;;;20.43;15.35;;;33.00;55.50;;;;;;1692021;85;21661;-82
2022/02/11 06:44:33;;;;;;;16.05;14.38;;;33.00;55.20;;;;;;1692205;85;21242;-82
2022/02/11 06:47:04;;;;;;;22.30;15.20;;;33.00;55.20;;;;;;1692187;85;21210;-82
2022/02/11 06:49:35;;;;;;;16.62;14.93;;;33.00;54.60;;;;;;1696680;83;21227;-82
2022/02/11 06:52:06;;;;;;;20.62;14.45;;;33.00;55.40;;;;;;1714840;83;21290;-82
2022/02/11 06:54:38;;;;;;;17.48;14.93;;;33.00;54.70;;;;;;1683428;83;21194;-82
2022/02/11 06:57:10;;;;;;;19.55;14.87;;;33.00;54.90;;;;;;1691965;84;21235;-81
2022/02/11 06:59:41;;;;;;;16.75;14.95;;;33.00;54.60;;;;;;1692221;85;21577;-85
2022/02/11 07:02:14;;;;;;;19.57;14.93;;;33.00;54.50;;;;;;1692564;85;21309;-83
2022/02/11 07:04:45;;;;;;;18.73;14.83;;;33.00;54.60;;;;;;1715772;81;21230;-83
2022/02/11 07:07:17;;;;;;;17.85;13.28;;;33.00;54.60;;;;;;1750264;81;21116;-81
2022/02/11 07:09:51;;;;;;;15.00;13.40;;;33.00;53.80;;;;;;1752447;82;21155;-80
2022/02/11 07:12:20;;;;;;;18.02;14.40;;;33.00;53.70;;;;;;1751857;82;21155;-82
2022/02/11 07:14:51;;;;;;;15.58;13.10;;;33.10;53.60;;;;;;1725043;83;21251;-85
2022/02/11 07:17:21;;;;;;;17.07;12.07;;;33.10;53.40;;;;;;1748818;82;21195;-81
2022/02/11 07:19:52;;;;;;;19.67;14.68;;;33.20;52.70;;;;;;1748905;81;21217;-81
2022/02/11 07:22:23;;;;;;;16.93;14.33;;;33.20;53.70;;;;;;1748446;81;21188;-79
2022/02/11 07:24:55;;;;;;;15.28;12.60;;;33.20;53.70;;;;;;1747363;82;21241;-80
2022/02/11 07:27:26;;;;;;;16.15;13.38;;;33.20;52.20;;;;;;1751575;81;21159;-80
2022/02/11 07:29:56;;;;;;;17.23;12.90;;;33.20;52.60;;;;;;1749313;81;21170;-80
2022/02/11 07:32:28;;;;;;;14.25;12.75;;;33.20;52.60;;;;;;1751771;81;21218;-81
2022/02/11 07:35:00;;;;;;;14.63;12.95;;;33.30;53.80;;;;;;1763041;81;21654;-81
2022/02/11 07:37:34;;;;;;;14.15;12.68;;;33.20;52.80;;;;;;1761922;81;21171;-82
2022/02/11 07:40:05;;;;;;;17.65;13.80;;;33.20;52.70;;;;;;1762064;81;21265;-81
2022/02/11 07:42:37;;;;;;;16.05;12.85;;;33.10;53.10;;;;;;1768311;81;21257;-82
2022/02/11 07:45:13;;;;;;;32.50;29.40;;;33.10;52.30;;;;;;1718917;82;21628;-82
2022/02/11 07:47:50;;;;;;;15.30;13.62;;;33.00;53.00;;;;;;1751688;81;21119;-81
2022/02/11 07:50:21;;;;;;;14.25;12.75;;;33.10;53.40;;;;;;1738798;82;21134;-81
2022/02/11 07:52:53;;;;;;;15.88;12.07;;;33.10;52.80;;;;;;1739098;82;22296;-80
2022/02/11 07:55:24;;;;;;;13.93;12.40;;;33.10;53.80;;;;;;1742787;81;21128;-81
2022/02/11 07:57:55;;;;;;;14.10;12.65;;;33.10;53.10;;;;;;1760293;81;21205;-82
2022/02/11 08:00:28;;;;;;;16.62;13.28;;;33.00;53.40;;;;;;1749078;81;21220;-81
2022/02/11 08:02:58;;;;;;;15.35;12.30;;;33.00;52.80;;;;;;1749383;81;21188;-81
2022/02/11 08:05:29;;;;;;;15.83;13.68;;;33.00;53.10;;;;;;1740331;82;21180;-81
2022/02/11 08:08:00;;;;;;;15.08;13.48;;;33.00;52.90;;;;;;1747101;82;21206;-79
2022/02/11 08:10:31;;;;;;;17.82;13.25;;;32.90;53.30;;;;;;1747097;82;21643;-80
2022/02/11 08:13:02;;;;;;;17.07;13.98;;;32.90;53.30;;;;;;1747224;82;21223;-80
2022/02/11 08:15:33;;;;;;;17.23;13.93;;;32.80;53.80;;;;;;1747410;81;21229;-80
2022/02/11 08:18:04;;;;;;;17.10;13.95;;;32.80;54.00;;;;;;1747343;82;21207;-80
2022/02/11 08:20:35;;;;;;;15.93;14.30;;;32.80;54.30;;;;;;1747540;82;21228;-80
2022/02/11 08:23:05;;;;;;;17.00;14.00;;;32.80;54.10;;;;;;1719753;83;21284;-80
2022/02/11 08:25:36;;;;;;;15.88;14.18;;;32.80;54.20;;;;;;1747495;82;21317;-80
2022/02/11 08:28:07;;;;;;;16.48;14.53;;;32.80;54.00;;;;;;1719837;83;21743;-79
2022/02/11 08:30:40;;;;;;;17.57;14.45;;;32.80;53.80;;;;;;1744911;82;21142;-80
2022/02/11 08:33:10;;;;;;;16.17;14.15;;;32.80;54.20;;;;;;1720343;83;21693;-80
2022/02/11 08:35:41;;;;;;;15.90;13.43;;;32.70;54.70;;;;;;1729419;82;21606;-81
2022/02/11 08:38:12;;;;;;;16.73;13.18;;;32.70;54.00;;;;;;1735789;82;21162;-81
2022/02/11 08:40:43;;;;;;;15.43;13.80;;;32.60;54.40;;;;;;1766229;80;21185;-81
2022/02/11 08:43:14;;;;;;;18.45;14.68;;;32.60;53.90;;;;;;1782177;80;21204;-82
2022/02/11 08:45:46;;;;;;;21.85;15.80;;;32.60;54.70;;;;;;1783348;80;21217;-81
2022/02/11 08:48:17;;;;;;;21.15;16.00;;;32.60;55.00;;;;;;1759361;80;21139;-82
2022/02/11 08:50:48;;;;;;;20.43;16.65;;;32.60;54.90;;;;;;1747839;81;21242;-82
2022/02/11 08:53:22;;;;;;;18.70;15.95;;;32.60;55.20;;;;;;1733662;81;21203;-81
2022/02/11 08:55:54;;;;;;;20.08;15.40;;;32.60;55.20;;;;;;1733087;80;21590;-82
2022/02/11 08:58:24;;;;;;;16.07;14.00;;;32.60;55.00;;;;;;1723242;82;21194;-81
2022/02/11 09:00:55;;;;;;;22.62;17.90;;;32.60;55.20;;;;;;1738757;82;21165;-82
2022/02/11 09:03:28;;;;;;;16.87;15.05;;;32.60;55.00;;;;;;1741720;81;21673;-82
2022/02/11 09:05:58;;;;;;;18.87;15.18;;;32.60;55.00;;;;;;1772777;80;21114;-81
2022/02/11 09:08:29;;;;;;;18.75;14.75;;;32.60;54.80;;;;;;1756236;81;21288;-82
2022/02/11 09:11:01;;;;;;;17.90;14.73;;;32.60;54.60;;;;;;1748265;81;21237;-81
2022/02/11 09:13:32;;;;;;;16.27;14.20;;;32.60;55.20;;;;;;1749899;81;21162;-82
2022/02/11 09:16:03;;;;;;;16.87;14.68;;;32.60;55.40;;;;;;1775155;81;21204;-81
2022/02/11 09:18:36;;;;;;;15.63;13.95;;;32.50;54.70;;;;;;1765258;81;21288;-81
2022/02/11 09:21:07;;;;;;;16.85;14.65;;;32.50;55.10;;;;;;1755590;81;21170;-81
2022/02/11 09:23:37;;;;;;;16.40;14.10;;;32.50;55.70;;;;;;1766760;81;21216;-81
2022/02/11 09:26:10;;;;;;;16.17;14.40;;;32.40;55.20;;;;;;1777292;81;21661;-82
2022/02/11 09:28:41;;;;;;;16.10;13.75;;;32.40;55.60;;;;;;1757641;81;21103;-82
2022/02/11 09:31:12;;;;;;;20.82;14.38;;;32.30;55.50;;;;;;1756667;81;21272;-81
2022/02/11 09:33:43;;;;;;;18.55;14.70;;;32.30;56.40;;;;;;1748581;81;21289;-80
2022/02/11 09:36:14;;;;;;;19.12;14.43;;;32.20;55.70;;;;;;1753643;81;21283;-81
2022/02/11 09:38:44;;;;;;;20.12;15.10;;;32.20;55.80;;;;;;1760698;81;21235;-82
2022/02/11 09:41:16;;;;;;;17.90;15.90;;;32.20;55.90;;;;;;1753245;81;21113;-80
2022/02/11 09:43:48;;;;;;;21.40;19.02;;;32.20;56.60;;;;;;1746956;81;21155;-81
2022/02/11 09:46:20;;;;;;;19.10;15.20;;;32.20;57.10;;;;;;1757464;81;21175;-81
2022/02/11 09:48:49;;;;;;;22.20;16.60;;;32.20;57.20;;;;;;1759657;81;21107;-81
2022/02/11 09:51:18;;;;;;;19.82;16.57;;;32.20;57.40;;;;;;1745811;81;21243;-81
2022/02/11 09:53:49;;;;;;;17.82;15.93;;;32.20;57.40;;;;;;1747876;81;21706;-81
2022/02/11 09:56:20;;;;;;;18.65;15.48;;;32.10;57.40;;;;;;1762713;81;21257;-81
2022/02/11 09:58:53;;;;;;;18.70;15.88;;;32.10;57.60;;;;;;1748312;81;21120;-82
2022/02/11 10:01:24;;;;;;;16.42;14.63;;;32.10;58.00;;;;;;1759044;81;21168;-82
2022/02/11 10:03:55;;;;;;;18.77;16.27;;;32.00;58.20;;;;;;1745806;82;21250;-81
2022/02/11 10:06:29;;;;;;;19.80;15.30;;;32.00;58.40;;;;;;1744300;80;21215;-81
2022/02/11 10:09:00;;;;;;;20.75;17.00;;;32.00;58.60;;;;;;1746611;82;21179;-82
2022/02/11 10:11:32;;;;;;;19.15;16.10;;;31.90;58.40;;;;;;1749085;81;21727;-82
2022/02/11 10:14:05;;;;;;;20.27;15.90;;;31.90;58.80;;;;;;1765402;81;21172;-82
2022/02/11 10:16:36;;;;;;;21.07;17.20;;;31.90;59.00;;;;;;1754658;81;21146;-82
2022/02/11 10:19:06;;;;;;;20.43;16.40;;;31.80;59.00;;;;;;1746928;82;21206;-82
2022/02/11 10:21:37;;;;;;;18.02;15.98;;;31.80;59.00;;;;;;1746959;82;21233;-81
2022/02/11 10:24:09;;;;;;;21.50;16.48;;;31.70;59.20;;;;;;1756150;81;21280;-81
2022/02/11 10:26:41;;;;;;;24.90;16.35;;;31.70;59.30;;;;;;1744678;82;21281;-82
2022/02/11 10:29:14;;;;;;;21.90;16.45;;;31.70;59.40;;;;;;1714162;83;21265;-81
2022/02/11 10:31:47;;;;;;;19.95;16.20;;;31.70;59.50;;;;;;1746150;81;21242;-82
2022/02/11 10:34:18;;;;;;;24.25;17.12;;;31.60;59.60;;;;;;1745365;81;21193;-83
2022/02/11 10:36:51;;;;;;;24.57;16.93;;;31.60;59.80;;;;;;1752299;81;21679;-81
2022/02/11 10:39:25;;;;;;;21.75;17.73;;;31.60;60.00;;;;;;1760652;81;21231;-80
2022/02/11 10:41:58;;;;;;;23.22;16.90;;;31.50;60.30;;;;;;1754902;81;21153;-82
2022/02/11 10:44:33;;;;;;;20.92;17.00;;;31.50;60.40;;;;;;1743875;81;21211;-81
2022/02/11 10:47:07;;;;;;;21.15;17.48;;;31.50;60.60;;;;;;1753206;81;21688;-82
2022/02/11 10:49:40;;;;;;;19.15;17.25;;;31.50;60.80;;;;;;1757928;81;21262;-81
2022/02/11 10:52:13;;;;;;;20.48;17.15;;;31.40;60.90;;;;;;1760404;81;21268;-81
2022/02/11 10:54:49;;;;;;;20.97;17.60;;;31.40;61.10;;;;;;1757134;81;21145;-81
2022/02/11 10:57:21;;;;;;;27.80;18.42;;;31.40;61.30;;;;;;1762713;80;21246;-80
2022/02/11 10:59:52;;;;;;;27.67;21.52;;;31.30;62.40;;;;;;1750135;81;21160;-80
2022/02/11 11:02:24;;;;;;;24.32;18.48;;;31.30;61.60;;;;;;1747131;81;21180;-81
2022/02/11 11:04:57;;;;;;;21.62;17.73;;;31.30;61.80;;;;;;1746995;81;21119;-81
2022/02/11 11:07:30;;;;;;;23.12;17.62;;;31.30;62.10;;;;;;1748293;81;21180;-81
2022/02/11 11:10:06;;;;;;;23.38;18.15;;;31.20;62.10;;;;;;1742106;81;21857;-80
2022/02/11 11:12:36;;;;;;;22.85;17.98;;;31.20;62.40;;;;;;1743137;81;21249;-81
2022/02/11 11:15:09;;;;;;;30.60;22.13;;;31.20;62.50;;;;;;1747065;81;21108;-81
2022/02/11 11:17:41;;;;;;;27.77;21.33;;;31.20;62.70;;;;;;1747988;81;21298;-82
2022/02/11 11:20:13;;;;;;;23.65;18.75;;;31.10;62.90;;;;;;1752174;81;21136;-82
2022/02/11 11:22:46;;;;;;;26.17;20.37;;;31.10;62.90;;;;;;1747693;81;21848;-82
2022/02/11 11:25:20;;;;;;;23.70;18.50;;;31.10;63.20;;;;;;1748419;81;21703;-81
2022/02/11 11:27:54;;;;;;;25.50;17.90;;;31.00;63.20;;;;;;1746236;81;21162;-81
2022/02/11 11:30:27;;;;;;;22.80;18.75;;;31.00;63.40;;;;;;1759092;81;21604;-82
2022/02/11 11:33:00;;;;;;;26.95;19.50;;;31.00;63.60;;;;;;1743394;81;21161;-81
2022/02/11 11:35:32;;;;;;;27.52;18.82;;;31.00;63.90;;;;;;1742867;81;21701;-81
2022/02/11 11:38:05;;;;;;;24.32;18.17;;;30.90;63.90;;;;;;1752564;81;21648;-82
2022/02/11 11:40:36;;;;;;;23.30;18.37;;;30.90;64.00;;;;;;1738029;81;21604;-81
2022/02/11 11:43:10;;;;;;;22.13;18.30;;;30.90;64.10;;;;;;1746369;81;21750;-83
2022/02/11 11:45:43;;;;;;;24.57;19.45;;;30.90;64.10;;;;;;1744090;81;21260;-82
2022/02/11 11:48:15;;;;;;;31.45;21.73;;;30.90;64.20;;;;;;1750597;81;21202;-82
2022/02/11 11:50:47;;;;;;;27.30;19.77;;;30.90;64.30;;;;;;1751074;81;21156;-82
2022/02/11 11:53:22;;;;;;;23.90;19.73;;;30.90;64.30;;;;;;1751383;81;21225;-82
2022/02/11 11:55:53;;;;;;;24.25;19.17;;;30.80;64.40;;;;;;1746820;81;21236;-82
2022/02/11 11:58:26;;;;;;;26.48;19.75;;;30.80;64.60;;;;;;1743809;81;21178;-81
2022/02/11 12:01:01;;;;;;;28.12;20.23;;;30.90;64.50;;;;;;1746316;81;21117;-81
2022/02/11 12:03:33;;;;;;;24.05;20.25;;;30.90;64.60;;;;;;1748273;81;21824;-81
2022/02/11 12:06:06;;;;;;;23.40;20.00;;;30.80;64.70;;;;;;1748702;81;21155;-81
2022/02/11 12:08:40;;;;;;;22.90;19.37;;;30.80;64.80;;;;;;1747103;80;21281;-82
2022/02/11 12:11:12;;;;;;;25.17;20.35;;;30.80;64.10;;;;;;1758679;81;21762;-81
2022/02/11 12:13:42;;;;;;;27.13;21.07;;;30.70;64.90;;;;;;1757483;81;21192;-81
2022/02/11 12:16:13;;;;;;;28.35;20.80;;;30.70;65.50;;;;;;1751254;81;21708;-81
2022/02/11 12:18:46;;;;;;;29.63;20.57;;;30.80;65.00;;;;;;1749695;81;21268;-81
2022/02/11 12:21:16;;;;;;;28.20;21.73;;;30.80;65.10;;;;;;1760588;81;21390;-80
2022/02/11 12:28:57;;;;;;;25.30;21.65;;;30.70;65.30;;;;;;1726383;82;21266;-81
2022/02/11 12:31:29;;;;;;;26.57;22.05;;;30.70;65.30;;;;;;1731897;82;21133;-82
2022/02/11 12:34:02;;;;;;;27.67;21.80;;;30.70;65.40;;;;;;1730781;82;21201;-81
2022/02/11 12:36:33;;;;;;;27.95;21.02;;;30.80;65.70;;;;;;1727297;82;21602;-82
2022/02/11 12:39:05;;;;;;;31.55;22.32;;;30.70;65.60;;;;;;1727885;82;21766;-83
2022/02/11 12:41:38;;;;;;;31.40;22.67;;;30.70;65.60;;;;;;1731576;82;21195;-81
2022/02/11 12:44:09;;;;;;;29.30;22.90;;;30.70;65.60;;;;;;1729868;82;21229;-83
2022/02/11 12:46:40;;;;;;;32.85;22.48;;;30.70;65.70;;;;;;1728085;82;21179;-82
2022/02/11 12:49:11;;;;;;;26.85;20.92;;;30.70;65.90;;;;;;1725097;82;21631;-83
2022/02/11 12:51:43;;;;;;;29.37;21.57;;;30.70;65.70;;;;;;1709952;83;21194;-83
2022/02/11 12:54:14;;;;;;;30.17;21.70;;;30.70;65.80;;;;;;1728378;83;21774;-82
2022/02/11 12:56:44;;;;;;;24.82;20.65;;;30.70;65.80;;;;;;1728561;83;21147;-82
2022/02/11 12:59:16;;;;;;;26.82;21.97;;;30.70;66.00;;;;;;1727718;83;21131;-82
2022/02/11 13:01:47;;;;;;;24.52;20.27;;;30.60;66.00;;;;;;1726195;82;21248;-82
2022/02/11 13:04:19;;;;;;;24.47;19.95;;;30.70;66.10;;;;;;1726334;82;21177;-82
2022/02/11 13:06:51;;;;;;;28.62;20.77;;;30.70;66.00;;;;;;1728739;82;21189;-82
2022/02/11 13:09:22;;;;;;;28.85;20.77;;;30.70;66.20;;;;;;1725699;82;21673;-82
2022/02/11 13:11:56;;;;;;;26.82;22.05;;;30.60;66.10;;;;;;1752766;81;21232;-83
2022/02/11 13:14:27;;;;;;;35.23;25.65;;;30.60;66.80;;;;;;1758343;80;21159;-83
2022/02/11 13:16:58;;;;;;;38.13;26.25;;;30.50;66.90;;;;;;1755620;80;21136;-83
2022/02/11 13:19:28;;;;;;;40.10;25.57;;;30.40;67.80;;;;;;1761308;80;21155;-81
2022/02/11 13:21:59;;;;;;;39.90;25.72;;;30.30;68.30;;;;;;1758687;81;21232;-82
2022/02/11 13:24:32;;;;;;;35.25;26.23;;;30.10;69.00;;;;;;1758202;80;21156;-82
2022/02/11 13:27:02;;;;;;;33.92;25.60;;;30.00;69.50;;;;;;1757641;80;21169;-81
2022/02/11 13:29:33;;;;;;;31.35;25.08;;;29.90;69.60;;;;;;1754518;81;21195;-84
2022/02/11 13:32:05;;;;;;;36.05;26.42;;;29.80;70.10;;;;;;1757207;80;21268;-82
2022/02/11 13:34:36;;;;;;;34.70;25.40;;;29.70;70.50;;;;;;1755940;81;21098;-83
2022/02/11 13:37:07;;;;;;;35.55;25.00;;;29.60;70.70;;;;;;1760091;81;21195;-82
2022/02/11 13:39:38;;;;;;;31.95;24.95;;;29.60;70.90;;;;;;1757356;81;21232;-81
2022/02/11 13:42:11;;;;;;;32.73;24.23;;;29.60;70.70;;;;;;1728318;82;21180;-81
2022/02/11 13:44:43;;;;;;;32.65;24.18;;;29.50;70.60;;;;;;1726345;82;21182;-81
2022/02/11 13:47:16;;;;;;;28.40;23.05;;;29.40;70.60;;;;;;1751880;82;21198;-82
2022/02/11 13:49:53;;;;;;;30.88;23.73;;;29.40;70.70;;;;;;1740749;82;21205;-84
2022/02/11 13:54:59;;;;;;;28.83;23.67;;;29.30;71.30;;;;;;1724235;83;21203;-84
2022/02/11 13:57:35;;;;;;;32.40;24.33;;;29.30;71.60;;;;;;1740547;82;21108;-84
2022/02/11 14:00:08;;;;;;;32.85;23.83;;;29.20;71.80;;;;;;1752635;81;21224;-84
2022/02/11 14:02:41;;;;;;;28.85;25.52;;;29.20;72.10;;;;;;1748813;82;21216;-84
2022/02/11 14:05:14;;;;;;;35.23;26.02;;;29.20;72.30;;;;;;1750608;82;21188;-84
2022/02/11 14:07:47;;;;;;;32.33;26.40;;;29.20;72.60;;;;;;1740481;82;21231;-82
2022/02/11 14:10:19;;;;;;;34.98;28.07;;;29.20;72.60;;;;;;1724583;82;21318;-83
2022/02/11 14:12:53;;;;;;;34.45;28.23;;;29.20;72.70;;;;;;1745154;79;21213;-83
2022/02/11 14:15:28;;;;;;;33.42;26.65;;;29.20;72.90;;;;;;1744915;82;21268;-83
2022/02/11 14:17:58;;;;;;;35.05;26.62;;;29.20;73.30;;;;;;1746563;82;21173;-84
2022/02/11 14:20:29;;;;;;;31.30;26.20;;;29.10;74.00;;;;;;1746357;82;21198;-84
2022/02/11 14:23:02;;;;;;;37.67;28.50;;;29.10;73.80;;;;;;1746246;82;21601;-83
2022/02/11 14:25:33;;;;;;;33.58;26.50;;;29.10;74.30;;;;;;1743333;82;21151;-83
2022/02/11 14:28:09;;;;;;;33.83;26.80;;;29.00;74.10;;;;;;1741674;82;21196;-84
2022/02/11 14:30:38;;;;;;;34.95;26.50;;;29.00;74.40;;;;;;1734689;81;21203;-82
2022/02/11 14:33:10;;;;;;;31.82;26.68;;;29.00;75.00;;;;;;1739048;82;21641;-82
2022/02/11 14:35:41;;;;;;;30.60;26.73;;;29.00;75.50;;;;;;1745870;82;21197;-83
2022/02/11 14:38:12;;;;;;;28.45;25.37;;;28.90;76.00;;;;;;1745619;82;21580;-83
2022/02/11 14:43:16;;;;;;;31.87;26.12;;;28.80;76.20;;;;;;1715608;83;21193;-83
2022/02/11 14:45:50;;;;;;;30.70;26.90;;;28.80;76.70;;;;;;1746163;82;21145;-82
2022/02/11 14:48:20;;;;;;;31.60;26.57;;;28.80;76.80;;;;;;1747926;82;21284;-82
2022/02/11 14:50:51;;;;;;;31.75;26.17;;;28.80;77.80;;;;;;1746685;82;21164;-83
2022/02/11 14:53:22;;;;;;;28.95;25.90;;;28.80;77.80;;;;;;1734460;80;21743;-84
2022/02/11 14:55:52;;;;;;;34.80;28.10;;;28.70;77.80;;;;;;1747282;82;21166;-83
2022/02/11 14:58:23;;;;;;;42.30;29.25;;;28.70;78.20;;;;;;1744750;82;21162;-83
2022/02/11 15:00:55;;;;;;;34.48;29.75;;;28.70;78.50;;;;;;1731790;82;21629;-83
2022/02/11 15:03:29;;;;;;;35.73;28.23;;;28.60;78.70;;;;;;1745942;82;21201;-84
2022/02/11 15:06:00;;;;;;;31.05;26.70;;;28.60;78.80;;;;;;1742367;81;21577;-83
2022/02/11 15:08:31;;;;;;;31.85;27.13;;;28.60;78.70;;;;;;1716338;83;21169;-83
2022/02/11 15:11:02;;;;;;;33.28;29.72;;;28.60;78.70;;;;;;1736736;81;21225;-83
2022/02/11 15:13:35;;;;;;;34.00;27.42;;;28.60;78.60;;;;;;1742561;82;21672;-84
2022/02/11 15:16:06;;;;;;;31.52;26.10;;;28.60;79.30;;;;;;1736026;81;21203;-85
2022/02/11 15:18:37;;;;;;;32.60;27.75;;;28.50;79.50;;;;;;1739638;81;21249;-84
2022/02/11 15:21:09;;;;;;;31.65;26.55;;;28.40;79.60;;;;;;1741077;81;21193;-83
2022/02/11 15:23:40;;;;;;;32.30;27.25;;;28.40;79.80;;;;;;1743563;81;21211;-83
2022/02/11 15:26:12;;;;;;;31.57;26.80;;;28.40;79.90;;;;;;1716164;83;21665;-83
2022/02/11 15:28:43;;;;;;;35.40;26.77;;;28.40;79.80;;;;;;1741026;82;22085;-83
2022/02/11 15:31:15;;;;;;;31.33;27.82;;;28.50;79.90;;;;;;1744051;81;21241;-82
2022/02/11 15:33:46;;;;;;;29.50;26.33;;;28.50;79.70;;;;;;1740304;82;21647;-83
2022/02/11 15:36:17;;;;;;;33.48;27.35;;;28.50;79.80;;;;;;1716794;83;21188;-83
2022/02/11 15:38:49;;;;;;;32.10;26.55;;;28.50;79.60;;;;;;1747647;81;21200;-82
2022/02/11 15:41:20;;;;;;;33.38;27.37;;;28.50;79.50;;;;;;1744412;81;21153;-83
2022/02/11 15:43:51;;;;;;;31.33;27.22;;;28.50;79.90;;;;;;1746871;82;21223;-84
2022/02/11 15:46:22;;;;;;;32.48;26.33;;;28.50;80.10;;;;;;1746271;82;21247;-83
2022/02/11 15:48:52;;;;;;;30.20;25.85;;;28.50;80.30;;;;;;1747015;81;21214;-80
2022/02/11 15:51:23;;;;;;;32.10;26.57;;;28.40;80.20;;;;;;1748090;81;21119;-83
2022/02/11 15:53:54;;;;;;;30.45;27.13;;;28.40;80.40;;;;;;1750217;81;22130;-83
2022/02/11 15:56:30;;;;;;;30.62;26.93;;;28.40;80.60;;;;;;1747600;82;21190;-82
2022/02/11 15:59:01;;;;;;;32.30;27.00;;;28.40;80.70;;;;;;1747907;82;21289;-81
2022/02/11 16:01:32;;;;;;;29.90;26.90;;;28.40;80.70;;;;;;1747653;81;21398;-83
2022/02/11 16:04:05;;;;;;;29.90;26.80;;;28.30;80.70;;;;;;1749676;81;21206;-81
2022/02/11 16:06:35;;;;;;;32.28;26.42;;;28.30;80.70;;;;;;1756602;81;21476;-82
2022/02/11 16:09:07;;;;;;;34.35;29.45;;;28.30;80.50;;;;;;1748644;81;21165;-83
2022/02/11 16:11:37;;;;;;;32.55;28.23;;;28.30;80.70;;;;;;1746710;82;21705;-83
2022/02/11 16:14:15;;;;;;;32.35;28.38;;;28.40;80.80;;;;;;1747267;79;21127;-83
2022/02/11 16:16:41;;;;;;;32.90;29.40;;;28.40;80.80;;;;;;1711732;82;21679;-83
2022/02/11 16:19:12;;;;;;;40.95;33.48;;;28.40;80.70;;;;;;1746614;82;21669;-82
2022/02/11 16:21:43;;;;;;;36.60;32.58;;;28.40;81.20;;;;;;1747276;81;21321;-82
2022/02/11 16:24:14;;;;;;;37.58;33.50;;;28.30;80.60;;;;;;1747527;82;21182;-82
2022/02/11 16:26:44;;;;;;;43.25;36.05;;;28.40;80.80;;;;;;1748282;81;21240;-82
2022/02/11 16:29:17;;;;;;;37.90;32.75;;;28.40;81.10;;;;;;1744327;82;21254;-83
2022/02/11 16:31:49;;;;;;;37.03;33.10;;;28.30;81.40;;;;;;1751755;81;21158;-83
2022/02/11 16:34:22;;;;;;;40.00;35.28;;;28.30;81.90;;;;;;1738095;82;21653;-84
2022/02/11 16:36:52;;;;;;;44.55;38.13;;;28.30;82.20;;;;;;1737501;82;21124;-82
2022/02/11 16:39:23;;;;;;;42.80;38.28;;;28.30;82.00;;;;;;1722053;82;21225;-83
2022/02/11 16:41:57;;;;;;;40.35;35.63;;;28.30;82.40;;;;;;1735070;81;21182;-83
2022/02/11 16:44:28;;;;;;;41.53;36.10;;;28.30;82.80;;;;;;1763818;80;21257;-83
2022/02/11 16:46:58;;;;;;;41.53;37.05;;;28.20;83.00;;;;;;1752714;81;21163;-83
2022/02/11 16:49:30;;;;;;;37.65;33.55;;;28.30;83.20;;;;;;1753699;81;21166;-83
2022/02/11 16:52:08;;;;;;;40.70;35.80;;;28.30;83.20;;;;;;1746535;81;21114;-83